Time;durP1;ratioP1;P1;durP2;ratioP2;P2;SDS_P1;SDS_P2;PMS_P1;PMS_P2;Temp;Humidity;BMP_temperature;BMP_pressure;BME280_temperature;BME280_humidity;BME280_pressure;Samples;Min_cycle;Max_cycle;Signal;HPM_P1;HPM_P2
2022/08/14 00:00:32;;;;;;;6.17;5.60;;;;;;;25.67;47.00;100443.22;5057738;28;20463;-60
2022/08/14 00:04:45;;;;;;;6.40;5.75;;;;;;;25.67;46.64;100433.16;5080479;27;2079641;-60
2022/08/14 00:07:11;;;;;;;6.63;6.03;;;;;;;25.65;46.70;100427.19;5116143;27;20903;-59
2022/08/14 00:09:37;;;;;;;6.55;5.95;;;;;;;25.67;46.79;100425.00;5131652;27;20908;-60
2022/08/14 00:12:05;;;;;;;6.30;5.70;;;;;;;25.68;46.81;100420.41;5144021;27;20472;-59
2022/08/14 00:14:31;;;;;;;7.03;5.65;;;;;;;25.63;46.80;100417.72;5134944;27;20380;-60
2022/08/14 00:16:56;;;;;;;7.10;5.60;;;;;;;25.64;46.82;100420.16;5137445;27;20405;-59
2022/08/14 00:19:22;;;;;;;6.40;5.80;;;;;;;25.63;46.75;100415.00;5142319;27;20448;-60
2022/08/14 00:21:49;;;;;;;7.07;6.27;;;;;;;25.63;46.60;100415.00;5128911;27;20865;-60
2022/08/14 00:24:15;;;;;;;6.85;5.75;;;;;;;25.63;46.97;100410.38;5128332;27;20410;-60
2022/08/14 00:26:40;;;;;;;7.23;6.07;;;;;;;25.58;46.76;100404.97;5135786;27;20444;-59
2022/08/14 00:29:06;;;;;;;6.77;5.93;;;;;;;25.61;46.75;100404.41;5146525;27;20385;-59
2022/08/14 00:33:41;;;;;;;6.60;6.00;;;;;;;25.59;46.70;100401.19;5048576;28;20456;-60
2022/08/14 00:36:07;;;;;;;7.13;5.53;;;;;;;25.54;46.92;100393.84;5030280;28;20409;-59
2022/08/14 00:38:33;;;;;;;7.18;5.70;;;;;;;25.52;47.01;100393.31;5041170;28;20787;-60
2022/08/14 00:40:59;;;;;;;7.80;5.70;;;;;;;25.55;47.06;100405.50;5037770;28;20480;-61
2022/08/14 00:44:09;;;;;;;6.97;5.72;;;;;;;25.54;47.07;100417.47;5102050;27;20471;-59
2022/08/14 00:46:36;;;;;;;6.17;5.60;;;;;;;25.54;47.07;100417.47;5094965;28;20404;-59
2022/08/14 00:49:02;;;;;;;7.80;5.93;;;;;;;25.54;47.00;100418.28;5095578;28;20466;-60
2022/08/14 00:51:31;;;;;;;7.15;5.78;;;;;;;25.54;47.16;100417.47;5086715;28;20390;-59
2022/08/14 00:53:57;;;;;;;6.43;5.78;;;;;;;25.48;47.11;100411.25;5086353;28;20397;-58
2022/08/14 00:56:24;;;;;;;8.05;6.25;;;;;;;25.46;47.31;100410.72;5087255;28;20398;-59
2022/08/14 00:58:49;;;;;;;6.30;5.60;;;;;;;25.45;47.29;100408.28;5086654;28;20756;-59
2022/08/14 01:01:17;;;;;;;6.70;5.93;;;;;;;25.45;47.37;100408.28;5091221;28;20899;-59
2022/08/14 01:03:43;;;;;;;6.57;5.88;;;;;;;25.45;47.47;100409.09;5090702;28;20410;-59
2022/08/14 01:06:11;;;;;;;6.18;5.57;;;;;;;25.48;47.42;100418.56;5086507;28;20433;-59
2022/08/14 01:08:38;;;;;;;7.40;5.97;;;;;;;25.48;47.41;100410.44;5086510;28;20386;-61
2022/08/14 01:11:04;;;;;;;6.43;5.70;;;;;;;25.50;47.39;100416.41;5086206;28;20463;-61
2022/08/14 01:13:34;;;;;;;6.30;5.70;;;;;;;25.44;47.39;100412.88;5086146;28;20761;-59
2022/08/14 01:16:04;;;;;;;6.30;5.70;;;;;;;25.45;47.25;100413.72;5105941;28;20404;-59
2022/08/14 01:21:20;;;;;;;6.13;5.53;;;;;;;25.42;47.52;100409.63;5086760;28;20385;-61
2022/08/14 01:23:49;;;;;;;7.00;5.93;;;;;;;25.38;47.57;100408.56;5086479;28;20456;-59
2022/08/14 01:26:20;;;;;;;6.68;6.00;;;;;;;25.37;47.57;100415.91;5080362;28;20408;-59
2022/08/14 01:28:47;;;;;;;8.15;6.07;;;;;;;25.40;47.51;100417.25;5086244;28;20382;-59
2022/08/14 01:31:17;;;;;;;6.78;6.07;;;;;;;25.39;47.60;100412.94;5086328;28;20451;-59
2022/08/14 01:33:46;;;;;;;9.20;5.95;;;;;;;25.35;47.65;100401.81;5086481;28;20382;-60
2022/08/14 01:36:15;;;;;;;6.90;6.30;;;;;;;25.40;47.58;100405.59;5085598;28;20463;-59
2022/08/14 01:38:42;;;;;;;7.25;6.00;;;;;;;25.38;47.87;100400.44;5085548;28;20896;-61
2022/08/14 01:43:29;;;;;;;7.80;6.22;;;;;;;25.32;48.04;100390.69;5071176;28;20412;-59
2022/08/14 01:45:57;;;;;;;8.43;6.07;;;;;;;25.27;48.11;100390.72;5067032;28;20407;-59
2022/08/14 01:48:24;;;;;;;7.15;6.20;;;;;;;25.25;48.33;100382.84;5053691;28;20426;-61
2022/08/14 01:50:50;;;;;;;6.35;5.57;;;;;;;25.26;48.39;100386.38;5054568;28;20966;-59
2022/08/14 01:53:16;;;;;;;6.60;5.90;;;;;;;25.29;48.31;100389.34;5066276;28;20488;-63
2022/08/14 01:55:42;;;;;;;6.57;5.97;;;;;;;25.32;48.35;100388.00;5060970;28;20879;-60
2022/08/14 01:58:14;;;;;;;8.82;6.15;;;;;;;25.31;48.38;100389.88;5046802;28;20440;-59
2022/08/14 02:00:40;;;;;;;7.03;6.10;;;;;;;25.29;48.71;100386.63;5053730;28;20394;-60
2022/08/14 02:03:06;;;;;;;7.07;6.37;;;;;;;25.30;48.58;100390.13;5055715;28;20421;-59
2022/08/14 02:05:32;;;;;;;6.53;5.93;;;;;;;25.29;48.80;100393.97;5060210;28;20388;-61
2022/08/14 02:07:58;;;;;;;8.40;6.20;;;;;;;25.29;48.88;100402.91;5050296;28;20910;-60
2022/08/14 02:10:27;;;;;;;7.13;5.95;;;;;;;25.27;48.83;100402.38;5049472;28;20401;-60
2022/08/14 02:12:55;;;;;;;8.30;6.45;;;;;;;25.29;48.84;100402.91;5066257;28;20383;-59
2022/08/14 02:15:22;;;;;;;6.75;6.05;;;;;;;25.25;48.88;100398.31;5065816;28;20453;-59
2022/08/14 02:17:49;;;;;;;7.33;5.83;;;;;;;25.27;48.77;100402.38;5053409;28;20400;-60
2022/08/14 02:20:16;;;;;;;8.43;6.18;;;;;;;25.26;48.87;100395.31;5061870;28;20451;-59
2022/08/14 02:22:42;;;;;;;6.60;5.90;;;;;;;25.24;49.10;100392.06;5049538;28;20826;-60
2022/08/14 02:25:09;;;;;;;7.53;6.00;;;;;;;25.22;48.84;100386.06;5056483;28;20389;-59
2022/08/14 02:27:36;;;;;;;9.70;6.40;;;;;;;25.25;49.04;100395.59;5040976;28;20401;-59
2022/08/14 02:30:03;;;;;;;6.97;6.22;;;;;;;25.24;48.93;100397.47;5062292;28;20813;-59
2022/08/14 02:32:30;;;;;;;10.15;6.30;;;;;;;25.21;48.86;100406.16;5050905;28;20384;-59
2022/08/14 02:34:56;;;;;;;8.48;6.13;;;;;;;25.23;49.16;100408.56;5057258;28;20386;-60
2022/08/14 02:37:22;;;;;;;6.80;6.20;;;;;;;25.21;49.24;100417.00;5047210;28;20390;-60
2022/08/14 02:39:49;;;;;;;9.90;6.20;;;;;;;25.20;49.13;100418.09;5047740;28;20389;-60
2022/08/14 02:42:20;;;;;;;9.50;6.40;;;;;;;25.15;49.20;100427.03;5053432;28;20429;-60
2022/08/14 02:44:45;;;;;;;7.45;6.07;;;;;;;25.09;49.18;100433.56;5052543;28;20388;-61
2022/08/14 02:47:11;;;;;;;8.57;6.78;;;;;;;24.97;49.82;100423.03;5062252;28;20479;-60
2022/08/14 02:49:38;;;;;;;7.17;6.37;;;;;;;24.99;50.23;100430.88;5060702;28;20395;-59
2022/08/14 02:52:06;;;;;;;7.60;6.47;;;;;;;24.96;50.46;100426.81;5051417;28;20428;-60
2022/08/14 02:54:33;;;;;;;8.23;6.30;;;;;;;24.96;50.46;100420.59;5038749;28;20960;-59
2022/08/14 02:57:04;;;;;;;8.07;6.90;;;;;;;25.00;50.57;100414.31;5051839;28;20389;-59
2022/08/14 02:59:31;;;;;;;8.25;6.80;;;;;;;25.00;50.82;100418.94;5046289;28;20435;-59
2022/08/14 03:01:57;;;;;;;9.13;7.20;;;;;;;25.02;51.70;100411.34;5035359;28;20422;-59
2022/08/14 03:04:28;;;;;;;8.15;7.05;;;;;;;25.05;52.33;100412.69;5047570;28;20841;-59
2022/08/14 03:06:54;;;;;;;7.90;6.70;;;;;;;25.03;52.23;100415.69;5040356;28;20407;-59
2022/08/14 03:09:20;;;;;;;10.50;6.90;;;;;;;25.03;52.20;100412.16;5046257;28;20438;-59
2022/08/14 03:11:46;;;;;;;8.98;7.07;;;;;;;25.00;53.40;100410.81;5036958;28;20823;-59
2022/08/14 03:14:12;;;;;;;7.75;7.03;;;;;;;25.00;53.53;100408.09;5048122;28;20895;-59
2022/08/14 03:16:40;;;;;;;8.25;7.30;;;;;;;24.89;54.53;100393.75;5037566;28;20493;-59
2022/08/14 03:19:07;;;;;;;9.10;7.75;;;;;;;24.87;54.82;100392.41;5046392;28;20404;-59
2022/08/14 03:21:35;;;;;;;11.13;7.78;;;;;;;24.83;54.95;100386.72;5038549;28;20962;-59
2022/08/14 03:26:37;;;;;;;10.40;7.57;;;;;;;24.85;55.95;100378.28;5036957;28;21821;-59
2022/08/14 03:29:03;;;;;;;8.77;7.60;;;;;;;24.86;55.73;100388.06;5042733;28;20473;-59
2022/08/14 03:31:28;;;;;;;10.30;7.85;;;;;;;24.76;56.19;100394.31;5032719;28;20398;-59
2022/08/14 03:33:55;;;;;;;9.17;7.80;;;;;;;24.76;56.44;100389.69;5047721;28;20400;-59
2022/08/14 03:36:21;;;;;;;9.30;8.15;;;;;;;24.73;56.98;100392.94;5035658;28;20892;-59
2022/08/14 03:38:49;;;;;;;10.25;8.20;;;;;;;24.71;57.37;100387.00;5044823;28;20390;-59
2022/08/14 03:41:20;;;;;;;9.02;7.90;;;;;;;24.70;56.87;100384.53;5041692;28;20438;-61
2022/08/14 03:43:49;;;;;;;9.75;8.77;;;;;;;24.70;56.63;100384.53;5036349;28;20402;-59
2022/08/14 03:46:15;;;;;;;10.27;8.23;;;;;;;24.64;56.41;100396.47;5043060;28;20448;-59
2022/08/14 03:48:42;;;;;;;11.95;9.10;;;;;;;24.60;56.08;100388.09;5045321;28;20412;-59
2022/08/14 03:51:10;;;;;;;9.60;8.60;;;;;;;24.59;55.85;100389.16;5040650;28;20901;-58
2022/08/14 03:53:41;;;;;;;10.50;8.88;;;;;;;24.53;55.97;100387.53;5037911;28;20907;-59
2022/08/14 03:56:13;;;;;;;10.98;9.35;;;;;;;24.52;56.70;100386.69;5041898;28;20395;-58
2022/08/14 03:58:48;;;;;;;9.75;8.65;;;;;;;24.48;56.83;100382.09;5045383;28;20489;-59
2022/08/14 04:01:18;;;;;;;10.73;9.25;;;;;;;24.49;56.45;100381.81;5022720;28;20401;-58
2022/08/14 04:03:44;;;;;;;10.80;9.07;;;;;;;24.49;56.50;100386.41;5013979;28;20434;-59
2022/08/14 04:06:10;;;;;;;10.70;9.60;;;;;;;24.45;56.15;100379.91;5039542;28;20392;-59
2022/08/14 04:08:37;;;;;;;11.00;9.18;;;;;;;24.40;56.05;100375.31;5028962;28;20422;-59
2022/08/14 04:11:03;;;;;;;10.63;9.20;;;;;;;24.38;55.80;100374.75;5015841;28;20982;-59
2022/08/14 04:13:31;;;;;;;10.38;9.38;;;;;;;24.38;55.94;100378.31;5035233;28;20403;-59
2022/08/14 04:15:58;;;;;;;11.50;9.05;;;;;;;24.36;56.19;100369.63;5034887;28;20470;-59
2022/08/14 04:18:24;;;;;;;11.23;9.13;;;;;;;24.36;56.29;100374.22;5046522;28;20912;-59
2022/08/14 04:20:50;;;;;;;10.55;9.00;;;;;;;24.31;56.19;100372.34;5037100;28;20395;-59
2022/08/14 04:23:16;;;;;;;10.18;9.07;;;;;;;24.35;56.11;100378.03;5040208;28;20425;-58
2022/08/14 04:25:41;;;;;;;9.47;8.57;;;;;;;24.31;55.77;100363.38;5030148;28;20429;-58
2022/08/14 04:28:10;;;;;;;11.05;9.15;;;;;;;24.33;55.71;100367.44;5029589;28;20493;-60
2022/08/14 04:30:39;;;;;;;9.80;8.20;;;;;;;24.27;55.89;100365.81;5035209;28;20396;-59
2022/08/14 04:33:06;;;;;;;11.05;8.45;;;;;;;24.28;55.82;100363.94;5040792;28;20477;-59
2022/08/14 04:35:33;;;;;;;9.60;8.63;;;;;;;24.27;55.80;100373.94;5042439;28;20426;-59
2022/08/14 04:43:36;;;;;;;11.30;9.05;;;;;;;24.25;56.02;100376.09;5041115;28;20431;-59
2022/08/14 04:46:04;;;;;;;9.60;8.27;;;;;;;24.22;56.19;100382.09;5034034;28;20398;-61
2022/08/14 04:48:29;;;;;;;11.60;8.30;;;;;;;24.16;56.29;100388.56;5033839;28;20396;-60
2022/08/14 04:50:58;;;;;;;9.33;8.40;;;;;;;24.12;56.50;100385.56;5041841;28;20392;-60
2022/08/14 04:53:28;;;;;;;8.13;7.32;;;;;;;24.09;56.26;100390.72;5038925;28;20812;-60
2022/08/14 04:55:54;;;;;;;9.30;8.30;;;;;;;24.09;55.79;100398.84;5044752;28;20388;-60
2022/08/14 04:58:25;;;;;;;9.70;8.23;;;;;;;24.08;55.82;100405.34;5033197;28;20968;-59
2022/08/14 05:00:52;;;;;;;9.30;8.40;;;;;;;24.05;55.71;100412.91;5041930;28;20882;-60
2022/08/14 05:03:20;;;;;;;8.03;7.23;;;;;;;24.04;55.78;100422.13;5040000;28;20449;-60
2022/08/14 05:05:50;;;;;;;8.70;7.70;;;;;;;24.02;55.56;100415.31;5043389;28;20392;-60
2022/08/14 05:08:16;;;;;;;8.43;7.55;;;;;;;24.00;55.82;100425.63;5033033;28;20469;-61
2022/08/14 05:10:50;;;;;;;8.23;7.32;;;;;;;23.98;55.96;100414.25;5044995;28;20884;-60
2022/08/14 05:13:20;;;;;;;11.15;8.70;;;;;;;23.99;56.38;100419.41;5039127;28;20767;-59
2022/08/14 05:15:46;;;;;;;9.50;8.32;;;;;;;23.99;56.38;100413.97;5035808;28;20888;-59
2022/08/14 05:18:15;;;;;;;10.35;8.85;;;;;;;23.99;56.41;100413.19;5045757;28;20423;-59
2022/08/14 05:20:44;;;;;;;12.52;8.20;;;;;;;24.07;56.27;100420.75;5033650;28;20392;-60
2022/08/14 05:23:11;;;;;;;9.40;8.32;;;;;;;24.08;56.04;100416.97;5040776;28;20414;-60
2022/08/14 05:25:37;;;;;;;10.68;8.18;;;;;;;24.08;56.00;100418.88;5041123;28;20430;-59
2022/08/14 05:28:11;;;;;;;9.23;8.30;;;;;;;24.07;56.04;100428.06;5042414;28;20392;-60
2022/08/14 05:30:38;;;;;;;9.32;8.40;;;;;;;24.02;56.59;100429.69;5017512;28;20447;-59
2022/08/14 05:33:05;;;;;;;9.50;8.43;;;;;;;23.97;56.62;100428.88;5041323;28;20473;-59
2022/08/14 05:35:31;;;;;;;10.27;8.80;;;;;;;24.00;56.54;100436.44;5028051;28;20950;-60
2022/08/14 05:37:58;;;;;;;9.30;8.48;;;;;;;23.97;56.82;100443.22;5029063;28;20402;-59
2022/08/14 05:40:24;;;;;;;11.60;9.20;;;;;;;23.94;56.89;100441.03;5029034;28;20879;-60
2022/08/14 05:42:50;;;;;;;10.63;8.95;;;;;;;23.93;57.11;100436.72;5029136;28;20422;-59
2022/08/14 05:45:16;;;;;;;11.13;9.43;;;;;;;23.90;57.49;100441.84;5030000;28;20405;-60
2022/08/14 05:47:41;;;;;;;10.63;8.75;;;;;;;23.85;57.52;100432.59;5026502;28;20960;-60
2022/08/14 05:50:12;;;;;;;16.92;10.40;;;;;;;23.82;57.68;100432.31;5029488;28;20402;-60
2022/08/14 05:52:38;;;;;;;11.00;9.27;;;;;;;23.75;57.52;100446.09;5045194;28;20403;-59
2022/08/14 05:55:05;;;;;;;9.77;8.77;;;;;;;23.70;57.73;100446.06;5032944;28;20393;-59
2022/08/14 05:57:30;;;;;;;10.30;8.50;;;;;;;23.74;57.58;100451.75;5031095;28;20436;-58
2022/08/14 05:59:56;;;;;;;10.10;8.93;;;;;;;23.77;57.71;100462.03;5028611;28;20398;-59
2022/08/14 06:02:21;;;;;;;12.43;8.90;;;;;;;23.67;58.42;100463.63;5033230;28;20414;-59
2022/08/14 06:04:47;;;;;;;10.65;9.00;;;;;;;23.61;58.53;100467.41;5029092;28;20405;-61
2022/08/14 06:07:13;;;;;;;12.43;9.70;;;;;;;23.57;58.70;100469.00;5027053;28;20409;-60
2022/08/14 06:09:39;;;;;;;12.10;9.80;;;;;;;23.54;58.90;100468.72;5027675;28;20524;-61
2022/08/14 06:12:06;;;;;;;11.20;10.07;;;;;;;23.56;59.15;100472.78;5027870;28;20497;-60
2022/08/14 06:14:32;;;;;;;12.85;10.88;;;;;;;23.51;59.67;100471.94;5027598;28;20390;-59
2022/08/14 06:16:58;;;;;;;11.20;10.10;;;;;;;23.49;59.39;100477.63;5027580;28;20380;-58
2022/08/14 06:19:23;;;;;;;12.48;9.82;;;;;;;23.45;59.54;100492.75;5027356;28;20430;-58
2022/08/14 06:21:49;;;;;;;12.53;10.33;;;;;;;23.46;59.68;100495.19;5027118;28;20414;-58
2022/08/14 06:24:15;;;;;;;11.38;10.27;;;;;;;23.39;59.79;100493.78;5026515;28;20848;-61
2022/08/14 06:26:40;;;;;;;14.03;10.70;;;;;;;23.37;60.01;100494.06;5030739;28;20402;-61
2022/08/14 06:29:06;;;;;;;11.20;10.00;;;;;;;23.35;60.21;100489.97;5030573;28;20404;-61
2022/08/14 06:31:32;;;;;;;12.47;10.80;;;;;;;23.29;60.46;100497.25;5032569;28;21736;-60
2022/08/14 06:33:58;;;;;;;11.35;10.15;;;;;;;23.24;60.93;100516.13;5033487;28;20906;-59
2022/08/14 06:36:23;;;;;;;12.53;9.97;;;;;;;23.19;60.55;100502.56;5034116;28;20477;-60
2022/08/14 06:38:51;;;;;;;13.05;10.35;;;;;;;23.23;61.26;100501.00;5032427;28;20394;-60
2022/08/14 06:41:17;;;;;;;11.98;10.77;;;;;;;23.23;60.76;100488.28;5026846;28;20484;-59
2022/08/14 06:43:42;;;;;;;11.83;10.40;;;;;;;23.23;61.08;100492.88;5030359;28;20402;-59
2022/08/14 06:46:08;;;;;;;14.07;10.18;;;;;;;23.23;60.74;100492.88;5029534;28;20458;-60
2022/08/14 06:48:34;;;;;;;13.50;9.53;;;;;;;23.16;60.92;100497.69;5028375;28;20958;-61
2022/08/14 06:50:59;;;;;;;10.40;9.30;;;;;;;23.18;61.01;100492.84;5030205;28;20402;-61
2022/08/14 06:53:25;;;;;;;10.20;9.20;;;;;;;23.09;60.81;100493.31;5027209;28;20401;-59
2022/08/14 06:55:50;;;;;;;10.43;9.30;;;;;;;23.06;61.31;100495.72;5028159;28;20432;-59
2022/08/14 06:58:17;;;;;;;10.07;9.07;;;;;;;23.10;61.43;100499.53;5015823;28;20391;-61
2022/08/14 07:05:44;;;;;;;9.80;8.25;;;;;;;23.08;60.95;100502.50;5023489;28;20421;-59
2022/08/14 07:06:16;;;;;;;8.98;7.85;;;;;;;22.95;61.09;100502.09;5014065;28;20398;-62
2022/08/14 07:08:42;;;;;;;8.07;7.00;;;;;;;22.94;61.09;100506.69;5022481;28;20417;-62
2022/08/14 07:11:09;;;;;;;8.05;7.22;;;;;;;22.87;60.91;100504.19;5030549;28;20409;-59
2022/08/14 07:13:36;;;;;;;7.50;6.47;;;;;;;22.94;60.63;100506.69;5027635;28;20480;-59
2022/08/14 07:16:02;;;;;;;7.22;5.97;;;;;;;22.89;60.70;100509.34;5019651;28;20932;-59
2022/08/14 07:18:30;;;;;;;9.23;6.68;;;;;;;22.90;61.00;100500.97;5028461;28;20489;-59
2022/08/14 07:20:57;;;;;;;7.32;6.63;;;;;;;22.87;60.92;100506.09;5026831;28;20402;-62
2022/08/14 07:23:24;;;;;;;7.10;5.73;;;;;;;22.86;60.53;100507.94;5023604;28;20802;-59
2022/08/14 07:25:55;;;;;;;7.75;6.32;;;;;;;22.80;60.67;100506.28;5020243;28;20434;-59
2022/08/14 07:28:27;;;;;;;7.32;6.63;;;;;;;22.85;60.73;100511.75;5017762;28;20396;-58
2022/08/14 07:30:57;;;;;;;8.48;6.88;;;;;;;22.88;60.83;100513.09;5023504;28;20397;-59
2022/08/14 07:33:25;;;;;;;7.97;7.10;;;;;;;22.88;60.85;100511.22;5017744;28;20392;-59
2022/08/14 07:35:52;;;;;;;8.85;7.82;;;;;;;22.88;60.89;100522.00;5029155;28;20402;-59
2022/08/14 07:38:19;;;;;;;8.15;7.30;;;;;;;22.87;60.88;100523.09;5024735;28;20404;-61
2022/08/14 07:40:47;;;;;;;8.02;7.20;;;;;;;22.85;60.73;100530.66;5021537;28;20487;-59
2022/08/14 07:43:12;;;;;;;8.35;7.53;;;;;;;22.89;60.88;100541.78;5026991;28;20429;-58
2022/08/14 07:45:39;;;;;;;8.50;7.60;;;;;;;22.95;60.65;100564.25;5022668;28;20398;-58
2022/08/14 07:48:05;;;;;;;10.37;7.80;;;;;;;23.00;60.97;100559.72;5030813;28;20406;-58
2022/08/14 07:50:31;;;;;;;9.35;7.97;;;;;;;23.00;60.59;100559.72;5024820;28;20400;-58
2022/08/14 07:52:57;;;;;;;11.23;8.27;;;;;;;22.97;60.81;100556.69;5024456;28;20382;-60
2022/08/14 07:55:22;;;;;;;9.03;8.13;;;;;;;22.99;60.64;100552.66;5016778;28;20396;-59
2022/08/14 07:57:49;;;;;;;8.70;7.80;;;;;;;22.99;60.58;100543.75;5016595;28;20392;-59
2022/08/14 08:00:23;;;;;;;10.73;8.43;;;;;;;22.97;60.34;100559.41;5023646;28;20403;-59
2022/08/14 08:02:52;;;;;;;10.15;9.02;;;;;;;22.91;60.70;100550.44;5021904;28;20809;-60
2022/08/14 08:05:20;;;;;;;10.00;8.70;;;;;;;22.94;60.39;100551.81;5019255;28;20401;-58
2022/08/14 08:07:46;;;;;;;10.45;9.27;;;;;;;22.99;60.48;100562.66;5024619;28;20422;-59
2022/08/14 08:10:40;;;;;;;9.85;8.80;;;;;;;23.03;60.77;100574.59;5027915;28;20405;-58
2022/08/14 08:13:30;;;;;;;10.30;9.18;;;;;;;23.05;60.61;100570.59;5020208;28;20391;-59
2022/08/14 08:15:56;;;;;;;11.27;9.45;;;;;;;22.99;60.50;100557.25;5018679;28;20449;-58
2022/08/14 08:18:22;;;;;;;10.75;9.30;;;;;;;23.01;60.50;100537.03;5026589;28;20409;-58
2022/08/14 08:20:51;;;;;;;11.52;9.25;;;;;;;23.05;60.63;100535.47;5026139;28;20414;-59
2022/08/14 08:23:19;;;;;;;10.88;9.77;;;;;;;23.11;60.79;100535.50;5026139;28;20449;-59
2022/08/14 08:25:47;;;;;;;11.15;9.18;;;;;;;23.14;60.84;100527.69;5024152;28;20422;-59
2022/08/14 08:28:19;;;;;;;10.27;9.13;;;;;;;23.17;60.89;100524.44;5015643;28;20392;-58
2022/08/14 08:30:59;;;;;;;10.90;9.05;;;;;;;23.13;60.91;100517.94;5021950;28;20587;-60
2022/08/14 08:33:27;;;;;;;11.50;8.90;;;;;;;23.08;60.89;100507.06;5021714;28;20521;-62
2022/08/14 08:35:57;;;;;;;9.60;8.50;;;;;;;23.09;61.16;100500.59;5026143;28;20824;-58
2022/08/14 08:38:25;;;;;;;11.27;8.80;;;;;;;23.12;61.15;100505.50;5027600;28;20414;-59
2022/08/14 08:40:55;;;;;;;9.77;8.60;;;;;;;23.13;61.15;100515.22;5022484;28;20830;-60
2022/08/14 08:43:32;;;;;;;11.90;9.35;;;;;;;23.14;61.26;100514.19;5019429;28;20430;-59
2022/08/14 08:46:02;;;;;;;11.52;8.02;;;;;;;23.09;61.19;100504.13;5013520;28;20392;-59
2022/08/14 08:48:30;;;;;;;9.13;8.23;;;;;;;23.04;61.35;100514.88;5016628;28;20422;-61
2022/08/14 08:51:00;;;;;;;8.05;7.25;;;;;;;23.05;60.96;100523.84;5012416;28;20380;-60
2022/08/14 08:53:35;;;;;;;8.63;7.17;;;;;;;23.02;60.66;100530.53;5014589;28;20420;-59
2022/08/14 08:56:02;;;;;;;8.63;7.30;;;;;;;22.97;60.78;100530.47;5013798;28;20384;-59
2022/08/14 08:58:28;;;;;;;8.93;7.00;;;;;;;22.95;60.78;100532.63;5012135;28;20762;-59
2022/08/14 09:00:56;;;;;;;6.88;6.20;;;;;;;22.96;60.64;100541.53;5010885;28;20478;-60
2022/08/14 09:03:24;;;;;;;7.78;6.43;;;;;;;22.95;60.59;100540.72;5026756;28;20410;-59
2022/08/14 09:06:02;;;;;;;8.15;6.75;;;;;;;22.95;60.82;100545.34;5018568;28;20412;-58
2022/08/14 09:08:33;;;;;;;7.73;6.13;;;;;;;22.97;60.55;100562.91;5018743;28;20414;-58
2022/08/14 09:11:01;;;;;;;6.47;5.82;;;;;;;22.99;60.54;100557.25;5015209;28;20910;-59
2022/08/14 09:13:28;;;;;;;8.40;5.38;;;;;;;22.94;60.30;100557.22;5032886;28;20473;-60
2022/08/14 09:15:55;;;;;;;5.97;5.38;;;;;;;22.93;60.46;100553.69;5011996;28;20442;-62
2022/08/14 09:18:22;;;;;;;6.85;5.47;;;;;;;23.00;60.44;100556.19;5008817;28;20424;-61
2022/08/14 09:20:50;;;;;;;6.68;5.63;;;;;;;23.03;60.30;100553.78;5015900;28;20868;-61
2022/08/14 09:23:16;;;;;;;7.13;5.57;;;;;;;23.09;60.24;100549.28;5022133;28;21015;-59
2022/08/14 09:25:46;;;;;;;6.40;5.80;;;;;;;23.12;60.38;100547.94;5019384;28;20492;-61
2022/08/14 09:28:13;;;;;;;6.75;5.95;;;;;;;23.18;60.45;100541.50;5015404;28;21124;-60
2022/08/14 09:30:51;;;;;;;6.97;5.88;;;;;;;23.22;60.45;100526.38;5026599;28;20402;-60
2022/08/14 09:33:31;;;;;;;6.88;6.07;;;;;;;23.27;60.03;100524.53;5023261;28;20379;-60
2022/08/14 09:36:00;;;;;;;6.78;5.97;;;;;;;23.36;60.13;100529.47;5030771;28;20390;-61
2022/08/14 09:38:44;;;;;;;6.80;6.10;;;;;;;23.42;59.94;100507.59;5028039;28;20401;-61
2022/08/14 09:41:28;;;;;;;6.78;5.28;;;;;;;23.52;59.73;100509.56;5028365;28;20820;-59
2022/08/14 09:44:05;;;;;;;5.60;5.00;;;;;;;23.61;59.62;100508.00;5028792;28;20536;-59
2022/08/14 09:46:31;;;;;;;5.47;4.97;;;;;;;23.67;59.61;100506.94;5029009;28;20381;-59
2022/08/14 09:49:03;;;;;;;6.50;5.50;;;;;;;23.72;59.22;100497.22;5028729;28;20383;-59
2022/08/14 09:51:30;;;;;;;6.80;5.22;;;;;;;23.78;59.12;100482.63;5029111;28;20460;-60
2022/08/14 09:54:11;;;;;;;7.18;5.63;;;;;;;23.89;59.40;100484.31;5029132;28;20401;-59
2022/08/14 09:56:48;;;;;;;5.50;5.00;;;;;;;23.92;59.08;100478.38;5025347;28;20383;-60
2022/08/14 09:59:20;;;;;;;6.95;5.68;;;;;;;24.01;59.48;100473.28;5029484;28;20391;-60
2022/08/14 10:01:48;;;;;;;8.02;6.15;;;;;;;24.09;58.95;100480.88;5025542;28;20426;-59
2022/08/14 10:04:31;;;;;;;9.15;7.35;;;;;;;24.16;58.50;100467.91;5030856;28;20897;-59
2022/08/14 10:06:57;;;;;;;10.18;8.60;;;;;;;24.24;58.73;100475.50;5032967;28;20382;-60
2022/08/14 10:09:23;;;;;;;10.77;9.10;;;;;;;24.35;57.89;100472.84;5032782;28;20391;-60
2022/08/14 10:14:16;;;;;;;9.52;6.75;;;;;;;24.57;57.64;100461.78;5067957;27;20817;-60
2022/08/14 10:16:51;;;;;;;7.50;5.22;;;;;;;24.65;57.35;100472.09;5066830;28;20388;-60
2022/08/14 10:19:18;;;;;;;4.70;4.28;;;;;;;24.71;57.43;100462.88;5062181;28;20830;-59
2022/08/14 10:21:59;;;;;;;5.82;4.10;;;;;;;24.81;56.88;100462.06;5066368;28;20415;-59
2022/08/14 10:24:31;;;;;;;4.95;4.45;;;;;;;24.94;56.56;100461.53;5068126;28;20760;-60
2022/08/14 10:27:00;;;;;;;5.68;4.85;;;;;;;25.08;56.78;100450.13;5065842;28;20380;-59
2022/08/14 10:29:36;;;;;;;5.88;5.10;;;;;;;25.16;56.73;100461.22;5065903;28;20394;-59
2022/08/14 10:32:03;;;;;;;5.18;4.63;;;;;;;25.23;56.61;100457.41;5066191;28;20391;-60
2022/08/14 10:34:34;;;;;;;5.68;5.07;;;;;;;25.22;56.46;100459.31;5059043;28;20479;-60
2022/08/14 10:37:06;;;;;;;5.70;4.90;;;;;;;25.20;56.42;100453.34;5014609;28;20414;-59
2022/08/14 10:39:34;;;;;;;6.10;4.90;;;;;;;25.17;56.41;100468.28;5007722;28;20471;-61
2022/08/14 10:44:46;;;;;;;5.32;4.70;;;;;;;25.21;56.07;100468.56;5081493;27;20412;-59
2022/08/14 10:47:12;;;;;;;5.00;4.50;;;;;;;25.21;55.57;100473.97;5066522;28;20489;-59
2022/08/14 10:49:48;;;;;;;4.80;3.70;;;;;;;25.25;55.69;100479.69;5066394;28;20388;-60
2022/08/14 10:52:41;;;;;;;3.50;3.20;;;;;;;25.33;55.27;100479.13;5064765;28;20748;-59
2022/08/14 10:55:12;;;;;;;3.28;2.97;;;;;;;25.42;54.69;100463.91;5062196;28;20392;-62
2022/08/14 10:57:52;;;;;;;3.95;3.20;;;;;;;25.49;54.94;100458.19;5064884;28;20870;-60
2022/08/14 11:00:25;;;;;;;4.05;3.65;;;;;;;25.55;55.28;100455.19;5064948;28;20384;-59
2022/08/14 11:03:08;;;;;;;3.83;3.42;;;;;;;25.63;55.73;100458.44;5063836;28;20416;-62
2022/08/14 11:05:43;;;;;;;3.15;2.85;;;;;;;25.71;54.52;100464.09;5063669;28;20384;-61
2022/08/14 11:08:11;;;;;;;3.13;2.83;;;;;;;25.81;54.47;100457.81;5062248;28;20384;-61
2022/08/14 11:10:42;;;;;;;3.00;2.80;;;;;;;25.80;53.39;100458.88;5064925;28;20395;-60
2022/08/14 11:13:08;;;;;;;3.63;2.78;;;;;;;25.66;53.67;100463.28;5064994;28;20463;-60
2022/08/14 11:15:34;;;;;;;3.53;3.00;;;;;;;25.55;53.89;100462.50;5065347;28;20471;-60
2022/08/14 11:18:01;;;;;;;3.00;2.80;;;;;;;25.44;53.50;100463.63;5065540;28;20392;-58
2022/08/14 11:20:30;;;;;;;3.80;3.47;;;;;;;25.42;54.04;100455.78;5064945;28;20399;-62
2022/08/14 11:22:59;;;;;;;3.47;2.43;;;;;;;25.44;53.77;100444.66;5064975;28;20975;-60
2022/08/14 11:25:29;;;;;;;3.70;2.65;;;;;;;25.48;53.56;100434.84;5064648;28;20932;-60
2022/08/14 11:27:57;;;;;;;2.63;2.42;;;;;;;25.51;52.97;100431.59;5064940;28;20372;-59
2022/08/14 11:30:25;;;;;;;2.40;2.20;;;;;;;25.60;53.10;100419.06;5065440;28;20384;-60
2022/08/14 11:32:51;;;;;;;3.05;2.50;;;;;;;25.66;53.06;100414.44;5063079;28;20393;-62
2022/08/14 11:35:19;;;;;;;2.67;2.47;;;;;;;25.69;52.97;100405.72;5063116;28;20407;-61
2022/08/14 11:37:54;;;;;;;4.47;3.47;;;;;;;25.62;53.39;100399.78;5062172;28;20408;-60
2022/08/14 11:40:22;;;;;;;3.67;3.30;;;;;;;25.50;53.79;100408.28;5053920;28;20420;-60
2022/08/14 11:42:49;;;;;;;3.90;3.47;;;;;;;25.54;54.54;100406.63;5062865;28;20464;-63
2022/08/14 11:45:15;;;;;;;5.18;3.60;;;;;;;25.60;54.20;100404.69;5062819;28;20492;-60
2022/08/14 11:47:41;;;;;;;7.22;3.70;;;;;;;25.54;54.33;100401.19;5062939;28;20378;-60
2022/08/14 11:50:16;;;;;;;4.45;4.05;;;;;;;25.51;54.21;100402.53;5064217;28;20380;-60
2022/08/14 11:52:43;;;;;;;5.55;4.05;;;;;;;25.55;54.72;100408.22;5064955;28;20446;-60